Terminal Aerodrome Forecast
Issued by NWS

Home | Current Version | Previous Version | Text Only | Print | Product List | Glossary On
Versions: 1 2 3 4 5 6 7 8 9 10 11 12 13 14 15 16 17 18 19 20 21
315
FTUS46 KSEW 261120
TAFBLI
TAF
KBLI 261120Z 2612/2712 07006KT P6SM BKN050 OVC110
     FM261500 09009KT P6SM -RA BKN035 OVC050
     FM261800 11015G25KT P6SM -RA OVC035
     FM262100 11015G25KT 5SM -RA BR OVC028
     FM270300 15013G22KT P6SM -SHRA SCT009 OVC022
     FM270600 17009KT P6SM -SHRA BKN022 OVC040=

USA.gov is the U.S. government's official web portal to all federal, state and local government web resources and services.